createdAt,value
2018-09-27T00:00:19.783Z,78.55
2018-09-27T00:01:19.765Z,78.64
2018-09-27T00:02:19.810Z,78.74
2018-09-27T00:03:19.728Z,78.55
2018-09-27T00:04:19.714Z,78.83
2018-09-27T00:05:19.700Z,78.55
2018-09-27T00:06:19.685Z,78.55
2018-09-27T00:07:19.662Z,78.55
2018-09-27T00:08:19.638Z,78.64
2018-09-27T00:09:19.619Z,78.64
2018-09-27T00:10:19.603Z,78.64
2018-09-27T00:11:19.583Z,79.02
2018-09-27T00:12:19.566Z,79.31
2018-09-27T00:13:19.547Z,79.41
2018-09-27T00:14:19.530Z,79.60
2018-09-27T00:15:19.511Z,79.41
2018-09-27T00:16:19.495Z,79.50
2018-09-27T00:17:19.478Z,79.60
2018-09-27T00:18:19.478Z,79.60
2018-09-27T00:19:19.438Z,79.60
2018-09-27T00:20:19.424Z,79.50
2018-09-27T00:21:19.465Z,79.60
2018-09-27T00:22:19.400Z,79.50
2018-09-27T00:23:19.365Z,79.69
2018-09-27T00:24:19.346Z,80.07
2018-09-27T00:25:19.328Z,80.17
2018-09-27T00:26:19.318Z,80.07
2018-09-27T00:27:19.303Z,80.07
2018-09-27T00:28:19.275Z,79.94
2018-09-27T00:29:19.266Z,80.70
2018-09-27T00:30:19.237Z,80.32
2018-09-27T00:31:19.228Z,80.80
2018-09-27T00:32:19.205Z,81.09
2018-09-27T00:33:19.183Z,81.18
2018-09-27T00:34:19.166Z,81.09
2018-09-27T00:35:19.148Z,81.18
2018-09-27T00:36:19.137Z,81.09
2018-09-27T00:37:19.111Z,80.51
2018-09-27T00:38:19.092Z,81.18
2018-09-27T00:39:19.077Z,81.09
2018-09-27T00:40:19.064Z,80.55
2018-09-27T00:41:19.036Z,81.27
2018-09-27T00:42:19.021Z,81.09
2018-09-27T00:43:19.007Z,81.27
2018-09-27T00:44:18.983Z,81.27
2018-09-27T00:45:18.963Z,81.09
2018-09-27T00:46:18.944Z,81.47
2018-09-27T00:47:18.928Z,81.66
2018-09-27T00:48:19.069Z,81.56
2018-09-27T00:49:18.924Z,81.85
2018-09-27T00:50:18.878Z,82.23
2018-09-27T00:51:18.915Z,81.95
2018-09-27T00:52:18.840Z,82.32
2018-09-27T00:53:18.819Z,82.71
2018-09-27T00:54:18.802Z,82.61
2018-09-27T00:55:18.787Z,82.61
2018-09-27T00:56:18.762Z,82.42
2018-09-27T00:57:18.743Z,82.71
2018-09-27T00:58:18.728Z,82.52
2018-09-27T00:59:18.712Z,82.61
2018-09-27T01:00:18.689Z,83.00
2018-09-27T01:01:18.669Z,82.90
2018-09-27T01:02:18.670Z,82.71
2018-09-27T01:03:18.633Z,82.90
2018-09-27T01:04:18.621Z,82.90
2018-09-27T01:05:18.599Z,83.18
2018-09-27T01:06:18.586Z,83.28
2018-09-27T01:07:18.558Z,83.47
2018-09-27T01:08:18.551Z,83.28
2018-09-27T01:09:18.523Z,83.38
2018-09-27T01:10:18.507Z,83.28
2018-09-27T01:11:18.487Z,83.38
2018-09-27T01:12:18.468Z,83.57
2018-09-27T01:13:18.446Z,83.95
2018-09-27T01:14:18.431Z,83.47
2018-09-27T01:15:18.419Z,83.86
2018-09-27T01:16:18.393Z,83.67
2018-09-27T01:17:18.391Z,83.28
2018-09-27T01:18:18.436Z,83.47
2018-09-27T01:19:18.342Z,84.05
2018-09-27T01:20:18.333Z,83.86
2018-09-27T01:21:18.305Z,84.14
2018-09-27T01:22:18.299Z,84.00
2018-09-27T01:23:18.273Z,84.23
2018-09-27T01:24:18.255Z,84.05
2018-09-27T01:25:18.228Z,83.76
2018-09-27T01:26:18.208Z,84.77
2018-09-27T01:27:18.192Z,84.05
2018-09-27T01:28:18.176Z,84.52
2018-09-27T01:29:18.152Z,84.52
2018-09-27T01:30:18.137Z,84.33
2018-09-27T01:31:18.122Z,84.33
2018-09-27T01:32:18.097Z,84.62
2018-09-27T01:33:18.077Z,84.77
2018-09-27T01:34:18.198Z,84.72
2018-09-27T01:35:18.050Z,84.39
2018-09-27T01:36:18.030Z,84.62
2018-09-27T01:37:18.067Z,85.00
2018-09-27T01:38:17.987Z,84.62
2018-09-27T01:39:17.969Z,84.72
2018-09-27T01:40:18.003Z,84.86
2018-09-27T01:41:17.928Z,85.63
2018-09-27T01:42:17.910Z,85.63
2018-09-27T01:43:17.896Z,85.34
2018-09-27T01:44:17.874Z,85.15
2018-09-27T01:45:17.857Z,85.25
2018-09-27T01:46:17.835Z,85.05
2018-09-27T01:47:17.819Z,85.34
2018-09-27T01:48:17.799Z,85.15
2018-09-27T01:49:17.781Z,85.05
2018-09-27T01:50:17.762Z,85.34
2018-09-27T01:51:17.744Z,85.34
2018-09-27T01:52:17.730Z,85.34
2018-09-27T01:53:17.705Z,85.05
2018-09-27T01:54:17.687Z,85.10
2018-09-27T01:55:17.668Z,84.77
2018-09-27T01:56:17.822Z,85.05
2018-09-27T01:57:17.643Z,85.10
2018-09-27T01:58:17.618Z,84.52
2018-09-27T01:59:17.660Z,84.52
2018-09-27T02:00:17.580Z,84.77
2018-09-27T02:01:17.556Z,85.00
2018-09-27T02:02:17.539Z,84.52
2018-09-27T02:03:17.519Z,84.81
2018-09-27T02:04:17.503Z,84.58
2018-09-27T02:05:17.483Z,84.77
2018-09-27T02:06:17.464Z,85.19
2018-09-27T02:07:17.461Z,85.67
2018-09-27T02:08:17.437Z,84.96
2018-09-27T02:09:17.409Z,84.77
2018-09-27T02:10:17.388Z,84.77
2018-09-27T02:11:17.370Z,84.96
2018-09-27T02:12:17.353Z,85.34
2018-09-27T02:13:17.334Z,85.72
2018-09-27T02:14:17.324Z,84.86
2018-09-27T02:15:17.297Z,85.05
2018-09-27T02:16:17.279Z,85.44
2018-09-27T02:17:17.258Z,85.67
2018-09-27T02:18:17.249Z,85.34
2018-09-27T02:19:17.225Z,85.19
2018-09-27T02:20:17.346Z,84.58
2018-09-27T02:21:17.184Z,84.62
2018-09-27T02:22:17.168Z,84.77
2018-09-27T02:23:17.149Z,85.10
2018-09-27T02:24:17.140Z,85.00
2018-09-27T02:25:17.108Z,84.77
2018-09-27T02:26:17.152Z,84.72
2018-09-27T02:27:17.072Z,85.00
2018-09-27T02:28:17.052Z,84.62
2018-09-27T02:29:17.036Z,85.19
2018-09-27T02:30:17.018Z,84.81
2018-09-27T02:31:16.998Z,85.10
2018-09-27T02:32:16.978Z,85.00
2018-09-27T02:33:16.963Z,84.81
2018-09-27T02:34:16.942Z,84.96
2018-09-27T02:35:16.925Z,85.19
2018-09-27T02:36:16.908Z,85.58
2018-09-27T02:37:16.884Z,85.29
2018-09-27T02:38:16.866Z,85.19
2018-09-27T02:39:16.849Z,85.34
2018-09-27T02:40:16.832Z,85.38
2018-09-27T02:41:16.812Z,85.29
2018-09-27T02:42:16.951Z,85.10
2018-09-27T02:43:16.774Z,85.53
2018-09-27T02:44:16.760Z,85.29
2018-09-27T02:45:16.770Z,85.10
2018-09-27T02:46:16.721Z,85.19
2018-09-27T02:47:16.699Z,84.72
2018-09-27T02:48:16.682Z,84.52
2018-09-27T02:49:16.661Z,84.43
2018-09-27T02:50:16.654Z,84.81
2018-09-27T02:51:16.625Z,85.00
2018-09-27T02:52:16.610Z,85.00
2018-09-27T02:53:16.588Z,84.72
2018-09-27T02:54:16.570Z,84.81
2018-09-27T02:55:16.549Z,84.52
2018-09-27T02:56:16.533Z,84.62
2018-09-27T02:57:16.522Z,84.33
2018-09-27T02:58:16.493Z,84.43
2018-09-27T02:59:16.477Z,84.52
2018-09-27T03:00:16.468Z,84.23
2018-09-27T03:01:16.440Z,83.47
2018-09-27T03:02:16.421Z,84.14
2018-09-27T03:03:16.402Z,84.14
2018-09-27T03:04:16.381Z,84.33
2018-09-27T03:05:16.364Z,83.95
2018-09-27T03:06:16.348Z,84.14
2018-09-27T03:07:16.329Z,83.95
2018-09-27T03:08:16.317Z,83.95
2018-09-27T03:09:16.473Z,84.05
2018-09-27T03:10:16.271Z,84.14
2018-09-27T03:11:16.262Z,83.86
2018-09-27T03:12:16.356Z,84.23
2018-09-27T03:13:16.219Z,84.33
2018-09-27T03:14:16.198Z,83.95
2018-09-27T03:15:16.180Z,83.86
2018-09-27T03:16:16.168Z,84.14
2018-09-27T03:17:16.149Z,84.33
2018-09-27T03:18:16.128Z,84.33
2018-09-27T03:19:16.107Z,83.86
2018-09-27T03:20:16.086Z,83.57
2018-09-27T03:21:16.072Z,83.57
2018-09-27T03:22:16.061Z,83.57
2018-09-27T03:23:16.036Z,83.86
2018-09-27T03:24:16.020Z,83.86
2018-09-27T03:25:15.997Z,83.86
2018-09-27T03:26:15.979Z,84.05
2018-09-27T03:27:15.960Z,84.14
2018-09-27T03:28:15.944Z,84.14
2018-09-27T03:29:15.922Z,83.86
2018-09-27T03:30:15.909Z,84.43
2018-09-27T03:31:15.889Z,84.23
2018-09-27T03:32:15.873Z,84.23
2018-09-27T03:33:15.851Z,84.43
2018-09-27T03:34:15.852Z,83.67
2018-09-27T03:35:15.822Z,84.05
2018-09-27T03:36:15.797Z,84.14
2018-09-27T03:37:15.784Z,83.76
2018-09-27T03:38:15.757Z,84.43
2018-09-27T03:39:15.745Z,84.43
2018-09-27T03:40:15.767Z,84.23
2018-09-27T03:41:15.703Z,83.86
2018-09-27T03:42:15.687Z,84.47
2018-09-27T03:43:15.674Z,84.05
2018-09-27T03:44:15.650Z,84.05
2018-09-27T03:45:15.631Z,84.38
2018-09-27T03:46:15.611Z,84.05
2018-09-27T03:47:15.597Z,84.14
2018-09-27T03:48:15.577Z,84.19
2018-09-27T03:49:15.557Z,83.99
2018-09-27T03:50:15.538Z,84.28
2018-09-27T03:51:15.521Z,84.56
2018-09-27T03:52:15.506Z,83.90
2018-09-27T03:53:15.482Z,84.19
2018-09-27T03:54:15.465Z,84.38
2018-09-27T03:55:15.449Z,84.09
2018-09-27T03:56:15.431Z,84.09
2018-09-27T03:57:15.410Z,83.99
2018-09-27T03:58:15.418Z,84.09
2018-09-27T03:59:15.375Z,83.90
2018-09-27T04:00:15.360Z,84.09
2018-09-27T04:01:15.467Z,83.99
2018-09-27T04:02:15.322Z,83.99
2018-09-27T04:03:15.339Z,83.51
2018-09-27T04:04:15.283Z,83.99
2018-09-27T04:05:15.268Z,84.09
2018-09-27T04:06:15.253Z,84.09
2018-09-27T04:07:15.227Z,84.38
2018-09-27T04:08:15.214Z,84.09
2018-09-27T04:09:15.193Z,84.38
2018-09-27T04:10:15.173Z,84.76
2018-09-27T04:11:15.153Z,84.09
2018-09-27T04:12:15.149Z,84.38
2018-09-27T04:13:15.120Z,84.85
2018-09-27T04:14:15.099Z,84.85
2018-09-27T04:15:15.086Z,84.28
2018-09-27T04:16:15.064Z,84.66
2018-09-27T04:17:15.045Z,84.76
2018-09-27T04:18:15.027Z,83.90
2018-09-27T04:19:15.009Z,83.90
2018-09-27T04:20:15.095Z,84.09
2018-09-27T04:21:14.978Z,84.28
2018-09-27T04:22:14.954Z,84.66
2018-09-27T04:23:14.936Z,84.19
2018-09-27T04:24:14.923Z,84.56
2018-09-27T04:25:14.899Z,83.90
2018-09-27T04:26:14.892Z,84.28
2018-09-27T04:27:14.864Z,83.51
2018-09-27T04:28:14.845Z,84.09
2018-09-27T04:29:14.829Z,83.99
2018-09-27T04:30:14.814Z,83.99
2018-09-27T04:31:14.790Z,83.90
2018-09-27T04:32:14.780Z,84.19
2018-09-27T04:33:14.759Z,83.90
2018-09-27T04:34:14.745Z,83.70
2018-09-27T04:35:14.726Z,83.90
2018-09-27T04:36:14.702Z,83.42
2018-09-27T04:37:14.688Z,84.09
2018-09-27T04:38:14.662Z,83.99
2018-09-27T04:39:14.662Z,84.19
2018-09-27T04:40:14.634Z,84.09
2018-09-27T04:41:14.607Z,83.70
2018-09-27T04:42:14.591Z,83.70
2018-09-27T04:43:14.580Z,83.61
2018-09-27T04:44:14.555Z,83.90
2018-09-27T04:45:14.541Z,83.23
2018-09-27T04:46:14.517Z,83.90
2018-09-27T04:47:14.501Z,83.90
2018-09-27T04:48:14.488Z,83.90
2018-09-27T04:49:14.462Z,83.42
2018-09-27T04:50:14.476Z,83.70
2018-09-27T04:51:14.426Z,83.99
2018-09-27T04:52:14.413Z,83.84
2018-09-27T04:53:14.394Z,83.37
2018-09-27T04:54:14.381Z,83.56
2018-09-27T04:55:14.354Z,83.42
2018-09-27T04:56:14.335Z,83.51
2018-09-27T04:57:14.315Z,83.17
2018-09-27T04:58:14.297Z,83.84
2018-09-27T04:59:14.280Z,83.70
2018-09-27T05:00:14.262Z,83.33
2018-09-27T05:01:14.242Z,83.13
2018-09-27T05:02:14.232Z,83.33
2018-09-27T05:03:14.212Z,83.33
2018-09-27T05:04:14.193Z,83.61
2018-09-27T05:05:14.172Z,83.42
2018-09-27T05:06:14.182Z,83.51
2018-09-27T05:07:14.134Z,83.42
2018-09-27T05:08:14.117Z,83.61
2018-09-27T05:09:14.100Z,83.61
2018-09-27T05:10:14.092Z,83.51
2018-09-27T05:11:14.063Z,83.56
2018-09-27T05:12:14.068Z,83.61
2018-09-27T05:13:14.030Z,83.65
2018-09-27T05:14:14.013Z,83.80
2018-09-27T05:15:13.991Z,83.65
2018-09-27T05:16:13.975Z,83.13
2018-09-27T05:17:13.960Z,83.65
2018-09-27T05:18:13.940Z,83.75
2018-09-27T05:19:13.920Z,83.51
2018-09-27T05:20:13.899Z,83.42
2018-09-27T05:21:13.892Z,83.61
2018-09-27T05:22:13.883Z,83.90
2018-09-27T05:23:13.945Z,84.03
2018-09-27T05:24:13.836Z,84.38
2018-09-27T05:25:13.808Z,84.03
2018-09-27T05:26:13.835Z,83.70
2018-09-27T05:27:13.816Z,83.90
2018-09-27T05:28:13.756Z,83.80
2018-09-27T05:29:13.740Z,83.94
2018-09-27T05:30:13.724Z,83.90
2018-09-27T05:31:13.706Z,84.09
2018-09-27T05:32:13.685Z,83.90
2018-09-27T05:33:13.667Z,83.23
2018-09-27T05:34:13.647Z,83.61
2018-09-27T05:35:13.639Z,84.28
2018-09-27T05:36:13.615Z,83.42
2018-09-27T05:37:13.592Z,83.51
2018-09-27T05:38:13.580Z,83.13
2018-09-27T05:39:13.561Z,83.65
2018-09-27T05:40:13.557Z,83.70
2018-09-27T05:41:13.520Z,83.27
2018-09-27T05:42:13.602Z,83.08
2018-09-27T05:43:13.481Z,83.37
2018-09-27T05:44:13.466Z,83.65
2018-09-27T05:45:13.513Z,83.46
2018-09-27T05:46:13.434Z,83.65
2018-09-27T05:47:13.412Z,83.37
2018-09-27T05:48:13.451Z,82.60
2018-09-27T05:49:13.374Z,83.37
2018-09-27T05:50:13.358Z,82.79
2018-09-27T05:51:13.348Z,83.08
2018-09-27T05:52:13.322Z,82.41
2018-09-27T05:53:13.301Z,83.27
2018-09-27T05:54:13.294Z,82.41
2018-09-27T05:55:13.266Z,82.12
2018-09-27T05:56:13.250Z,81.93
2018-09-27T05:57:13.235Z,82.22
2018-09-27T05:58:13.211Z,81.89
2018-09-27T05:59:13.197Z,81.70
2018-09-27T06:00:13.176Z,82.08
2018-09-27T06:01:13.170Z,82.03
2018-09-27T06:02:13.157Z,82.41
2018-09-27T06:03:13.132Z,81.55
2018-09-27T06:04:13.107Z,82.22
2018-09-27T06:05:13.093Z,81.74
2018-09-27T06:06:13.072Z,81.55
2018-09-27T06:07:13.049Z,81.55
2018-09-27T06:08:13.032Z,81.93
2018-09-27T06:09:13.014Z,81.03
2018-09-27T06:10:12.993Z,80.98
2018-09-27T06:11:12.997Z,81.36
2018-09-27T06:12:12.960Z,81.07
2018-09-27T06:13:12.938Z,80.88
2018-09-27T06:14:12.924Z,80.88
2018-09-27T06:15:12.964Z,80.02
2018-09-27T06:16:12.887Z,80.02
2018-09-27T06:17:12.869Z,79.83
2018-09-27T06:18:12.856Z,79.93
2018-09-27T06:19:12.883Z,79.93
2018-09-27T06:20:12.823Z,80.02
2018-09-27T06:21:12.797Z,80.11
2018-09-27T06:22:12.783Z,80.11
2018-09-27T06:23:12.760Z,79.73
2018-09-27T06:24:12.744Z,80.02
2018-09-27T06:25:12.722Z,79.35
2018-09-27T06:26:12.788Z,79.25
2018-09-27T06:27:12.693Z,78.78
2018-09-27T06:28:12.672Z,79.06
2018-09-27T06:29:12.659Z,78.97
2018-09-27T06:30:12.634Z,78.30
2018-09-27T06:31:12.722Z,78.39
2018-09-27T06:32:12.602Z,78.87
2018-09-27T06:33:12.581Z,78.97
2018-09-27T06:34:12.574Z,78.68
2018-09-27T06:35:12.606Z,78.30
2018-09-27T06:36:12.529Z,78.39
2018-09-27T06:37:12.514Z,78.68
2018-09-27T06:38:12.492Z,78.30
2018-09-27T06:39:12.484Z,78.39
2018-09-27T06:40:12.490Z,78.78
2018-09-27T06:41:12.437Z,78.87
2018-09-27T06:42:12.422Z,78.87
2018-09-27T06:43:12.404Z,78.49
2018-09-27T06:44:12.384Z,78.11
2018-09-27T06:45:12.369Z,77.44
2018-09-27T06:46:12.352Z,77.44
2018-09-27T06:47:12.338Z,77.63
2018-09-27T06:48:12.343Z,77.63
2018-09-27T06:49:12.303Z,77.82
2018-09-27T06:50:12.279Z,77.72
2018-09-27T06:51:12.261Z,77.92
2018-09-27T06:52:12.246Z,77.82
2018-09-27T06:53:12.226Z,77.63
2018-09-27T06:54:12.212Z,77.44
2018-09-27T06:55:12.439Z,77.34
2018-09-27T06:56:12.281Z,77.15
2018-09-27T06:57:12.156Z,77.06
2018-09-27T06:58:12.188Z,77.63
2018-09-27T06:59:12.122Z,77.53
2018-09-27T07:00:12.106Z,77.82
2018-09-27T07:01:12.194Z,77.82
2018-09-27T07:02:12.069Z,77.72
2018-09-27T07:03:12.064Z,77.82
2018-09-27T07:04:12.041Z,78.01
2018-09-27T07:05:12.018Z,78.20
2018-09-27T07:06:11.999Z,78.39
2018-09-27T07:07:11.988Z,78.58
2018-09-27T07:08:11.970Z,78.39
2018-09-27T07:09:11.950Z,78.49
2018-09-27T07:10:11.932Z,77.44
2018-09-27T07:11:11.912Z,77.82
2018-09-27T07:12:12.006Z,77.82
2018-09-27T07:13:11.879Z,78.01
2018-09-27T07:14:11.861Z,77.63
2018-09-27T07:15:11.842Z,77.06
2018-09-27T07:16:11.829Z,77.48
2018-09-27T07:17:11.823Z,76.62
2018-09-27T07:18:11.790Z,76.71
2018-09-27T07:19:11.774Z,76.52
2018-09-27T07:20:11.824Z,76.71
2018-09-27T07:21:11.740Z,75.95
2018-09-27T07:22:11.725Z,75.27
2018-09-27T07:23:11.755Z,75.37
2018-09-27T07:24:11.707Z,76.14
2018-09-27T07:25:11.755Z,75.47
2018-09-27T07:26:11.654Z,75.18
2018-09-27T07:27:11.639Z,74.41
2018-09-27T07:28:11.618Z,74.51
2018-09-27T07:29:11.597Z,74.32
2018-09-27T07:30:11.584Z,73.84
2018-09-27T07:31:11.680Z,73.27
2018-09-27T07:32:11.566Z,73.55
2018-09-27T07:33:11.527Z,73.17
2018-09-27T07:34:11.513Z,73.27
2018-09-27T07:35:11.493Z,73.40
2018-09-27T07:36:11.490Z,73.40
2018-09-27T07:37:11.462Z,73.11
2018-09-27T07:38:11.438Z,73.46
2018-09-27T07:39:11.576Z,73.50
2018-09-27T07:40:11.407Z,73.40
2018-09-27T07:41:11.393Z,73.40
2018-09-27T07:42:11.378Z,73.17
2018-09-27T07:43:11.352Z,73.21
2018-09-27T07:44:11.337Z,73.21
2018-09-27T07:45:11.318Z,73.11
2018-09-27T07:46:11.296Z,73.02
2018-09-27T07:47:11.396Z,73.36
2018-09-27T07:48:11.263Z,73.50
2018-09-27T07:49:11.248Z,73.21
2018-09-27T07:50:11.242Z,73.69
2018-09-27T07:51:11.218Z,73.40
2018-09-27T07:52:11.192Z,73.59
2018-09-27T07:53:11.180Z,73.59
2018-09-27T07:54:11.189Z,73.11
2018-09-27T07:55:11.144Z,73.21
2018-09-27T07:56:11.123Z,72.96
2018-09-27T07:57:11.100Z,72.19
2018-09-27T07:58:11.087Z,72.34
2018-09-27T07:59:11.077Z,72.00
2018-09-27T08:00:11.060Z,71.52
2018-09-27T08:01:11.035Z,71.71
2018-09-27T08:02:11.015Z,71.14
2018-09-27T08:03:11.081Z,71.04
2018-09-27T08:04:10.990Z,71.14
2018-09-27T08:05:10.967Z,71.14
2018-09-27T08:06:10.951Z,70.76
2018-09-27T08:07:10.928Z,70.70
2018-09-27T08:08:10.908Z,70.47
2018-09-27T08:09:10.949Z,70.50
2018-09-27T08:10:10.883Z,70.03
2018-09-27T08:11:10.926Z,69.89
2018-09-27T08:12:10.840Z,70.12
2018-09-27T08:13:10.825Z,69.93
2018-09-27T08:14:10.808Z,69.17
2018-09-27T08:15:10.791Z,69.07
2018-09-27T08:16:10.775Z,69.35
2018-09-27T08:17:10.815Z,69.35
2018-09-27T08:18:10.758Z,69.17
2018-09-27T08:19:10.718Z,69.54
2018-09-27T08:20:10.704Z,68.24
2018-09-27T08:21:10.849Z,68.24
2018-09-27T08:22:10.672Z,67.57
2018-09-27T08:23:10.653Z,67.66
2018-09-27T08:24:10.642Z,66.80
2018-09-27T08:25:10.639Z,65.97
2018-09-27T08:26:10.603Z,65.39
2018-09-27T08:27:10.588Z,64.92
2018-09-27T08:28:10.618Z,64.53
2018-09-27T08:29:10.556Z,64.92
2018-09-27T08:30:10.551Z,64.63
2018-09-27T08:31:10.554Z,64.82
2018-09-27T08:32:10.499Z,65.01
2018-09-27T08:33:10.491Z,64.34
2018-09-27T08:34:10.481Z,64.25
2018-09-27T08:35:10.447Z,63.70
2018-09-27T08:36:10.494Z,63.70
2018-09-27T08:37:10.417Z,63.22
2018-09-27T08:38:10.446Z,63.99
2018-09-27T08:39:10.382Z,63.99
2018-09-27T08:40:10.366Z,63.60
2018-09-27T08:41:10.348Z,64.09
2018-09-27T08:42:10.334Z,63.22
2018-09-27T08:43:10.319Z,62.84
2018-09-27T08:44:10.297Z,61.72
2018-09-27T08:45:10.413Z,61.27
2018-09-27T08:46:10.271Z,60.40
2018-09-27T08:47:10.261Z,59.64
2018-09-27T08:48:10.233Z,58.99
2018-09-27T08:49:10.216Z,58.61
2018-09-27T08:50:10.202Z,58.89
2018-09-27T08:51:10.192Z,58.99
2018-09-27T08:52:10.221Z,58.61
2018-09-27T08:53:10.152Z,58.06
2018-09-27T08:54:10.150Z,57.39
2018-09-27T08:55:10.240Z,57.00
2018-09-27T08:56:10.242Z,57.00
2018-09-27T08:57:10.085Z,57.58
2018-09-27T08:58:10.072Z,57.00
2018-09-27T08:59:10.056Z,57.39
2018-09-27T09:00:10.040Z,57.29
2018-09-27T09:01:10.022Z,57.20
2018-09-27T09:02:10.017Z,56.43
2018-09-27T09:03:09.990Z,55.49
2018-09-27T09:04:09.976Z,55.59
2018-09-27T09:05:09.961Z,55.04
2018-09-27T09:06:09.952Z,54.46
2018-09-27T09:07:09.931Z,54.00
2018-09-27T09:08:09.965Z,53.43
2018-09-27T09:09:09.908Z,53.05
2018-09-27T09:10:09.885Z,52.37
2018-09-27T09:11:09.911Z,52.59
2018-09-27T09:12:09.905Z,51.72
2018-09-27T09:13:09.863Z,51.72
2018-09-27T09:14:09.829Z,52.30
2018-09-27T09:15:09.820Z,52.75
2018-09-27T09:16:09.818Z,52.75
2018-09-27T09:17:09.792Z,54.10
2018-09-27T09:18:09.773Z,53.91
2018-09-27T09:19:09.760Z,53.62
2018-09-27T09:20:10.357Z,54.08
2018-09-27T09:21:09.743Z,54.10
2018-09-27T09:22:09.722Z,53.43
2018-09-27T09:23:09.709Z,53.36
2018-09-27T09:24:09.700Z,53.17
2018-09-27T09:25:09.684Z,52.95
2018-09-27T09:26:09.704Z,53.72
2018-09-27T09:27:09.669Z,53.23
2018-09-27T09:28:09.660Z,53.81
2018-09-27T09:29:09.642Z,53.81
2018-09-27T09:30:09.630Z,54.10
2018-09-27T09:31:09.611Z,53.36
2018-09-27T09:32:09.602Z,52.78
2018-09-27T09:33:09.588Z,51.72
2018-09-27T09:34:09.576Z,51.62
2018-09-27T09:35:09.567Z,51.72
2018-09-27T09:36:09.556Z,52.04
2018-09-27T09:37:09.547Z,51.84
2018-09-27T09:38:09.531Z,51.39
2018-09-27T09:39:09.516Z,49.96
2018-09-27T09:40:09.508Z,49.10
2018-09-27T09:41:09.492Z,48.71
2018-09-27T09:42:09.481Z,47.85
2018-09-27T09:43:09.472Z,47.80
2018-09-27T09:44:09.461Z,46.20
2018-09-27T09:45:09.451Z,44.87
2018-09-27T09:46:09.442Z,42.97
2018-09-27T09:47:09.427Z,42.57
2018-09-27T09:48:09.417Z,42.40
2018-09-27T09:49:09.416Z,42.03
2018-09-27T09:50:09.434Z,40.96
2018-09-27T09:51:09.416Z,40.58
2018-09-27T09:52:09.380Z,41.04
2018-09-27T09:53:09.369Z,41.52
2018-09-27T09:54:09.411Z,41.33
2018-09-27T09:55:09.769Z,41.42
2018-09-27T09:56:09.347Z,40.73
2018-09-27T09:58:13.698Z,41.02
2018-09-27T09:59:14.351Z,41.02
2018-09-27T10:04:38.784Z,39.16
2018-09-27T10:05:38.784Z,38.50
2018-09-27T10:06:38.769Z,36.69
2018-09-27T10:07:38.764Z,35.92
2018-09-27T10:08:38.758Z,35.22
2018-09-27T10:09:38.756Z,35.40
2018-09-27T10:10:38.747Z,35.59
2018-09-27T10:11:38.750Z,35.69
2018-09-27T10:12:38.730Z,34.89
2018-09-27T10:13:38.727Z,35.48
2018-09-27T10:14:38.994Z,35.86
2018-09-27T10:15:38.727Z,35.19
2018-09-27T10:16:38.708Z,35.46
2018-09-27T10:17:38.738Z,35.93
2018-09-27T10:18:38.704Z,36.10
2018-09-27T10:19:38.697Z,36.86
2018-09-27T10:20:38.709Z,36.38
2018-09-27T10:22:38.696Z,36.49
2018-09-27T10:25:21.510Z,34.47
2018-09-27T10:26:21.494Z,34.47
2018-09-27T10:27:21.529Z,34.09
2018-09-27T10:28:21.481Z,34.12
2018-09-27T10:29:21.473Z,33.44
2018-09-27T10:30:21.469Z,33.25
2018-09-27T10:31:21.471Z,32.79
2018-09-27T10:32:21.486Z,32.60
2018-09-27T10:33:21.449Z,32.60
2018-09-27T10:34:24.269Z,33.28
2018-09-27T10:35:24.068Z,33.28
2018-09-27T10:36:21.436Z,32.71
2018-09-27T10:37:21.422Z,32.44
2018-09-27T10:38:21.423Z,32.62
2018-09-27T10:40:29.420Z,32.52
2018-09-27T10:41:26.989Z,32.44
2018-09-27T10:45:56.252Z,32.04
2018-09-27T10:46:23.040Z,32.50
2018-09-27T10:47:23.046Z,32.70
2018-09-27T10:48:23.025Z,32.12
2018-09-27T10:49:23.035Z,32.21
2018-09-27T10:50:23.021Z,32.62
2018-09-27T10:51:23.129Z,32.54
2018-09-27T10:52:23.007Z,32.13
2018-09-27T10:53:22.992Z,32.13
2018-09-27T10:54:22.989Z,32.05
2018-09-27T10:55:22.982Z,31.29
2018-09-27T10:56:22.976Z,31.18
2018-09-27T10:57:22.974Z,31.57
2018-09-27T10:58:22.963Z,32.05
2018-09-27T10:59:22.962Z,32.24
2018-09-27T11:00:22.961Z,32.05
2018-09-27T11:01:22.970Z,32.23
2018-09-27T11:02:22.943Z,32.62
2018-09-27T11:03:22.937Z,33.67
2018-09-27T11:04:22.931Z,33.86
2018-09-27T11:05:22.927Z,33.86
2018-09-27T11:06:22.920Z,34.08
2018-09-27T11:07:22.916Z,33.78
2018-09-27T11:08:22.910Z,33.59
2018-09-27T11:09:22.903Z,33.39
2018-09-27T11:10:22.916Z,33.29
2018-09-27T11:11:22.897Z,32.73
2018-09-27T11:12:22.892Z,32.15
2018-09-27T11:13:22.882Z,32.17
2018-09-27T11:14:22.883Z,32.44
2018-09-27T11:15:22.878Z,32.15
2018-09-27T11:16:22.934Z,32.07
2018-09-27T11:17:22.866Z,32.05
2018-09-27T11:18:22.855Z,32.04
2018-09-27T11:19:22.850Z,31.85
2018-09-27T11:20:22.847Z,31.16
2018-09-27T11:21:22.844Z,30.77
2018-09-27T11:22:22.832Z,30.58
2018-09-27T11:23:22.842Z,31.26
2018-09-27T11:24:22.820Z,32.04
2018-09-27T11:25:22.814Z,33.09
2018-09-27T11:26:22.810Z,33.59
2018-09-27T11:27:22.872Z,32.92
2018-09-27T11:28:22.799Z,32.34
2018-09-27T11:29:22.791Z,32.35
2018-09-27T11:30:22.783Z,32.08
2018-09-27T11:31:22.783Z,32.26
2018-09-27T11:32:22.771Z,31.77
2018-09-27T11:34:06.391Z,30.40
2018-09-27T11:35:10.429Z,30.38
2018-09-27T11:36:06.379Z,30.58
2018-09-27T11:37:06.384Z,30.79
2018-09-27T11:38:06.367Z,30.69
2018-09-27T11:39:06.366Z,30.79
2018-09-27T11:40:06.353Z,30.98
2018-09-27T11:41:06.353Z,31.47
2018-09-27T11:42:06.332Z,30.98
2018-09-27T11:43:06.331Z,31.08
2018-09-27T11:44:06.355Z,31.53
2018-09-27T11:45:06.314Z,32.60
2018-09-27T11:46:06.303Z,32.78
2018-09-27T11:47:06.299Z,33.17
2018-09-27T11:48:06.293Z,33.18
2018-09-27T11:49:06.371Z,32.23
2018-09-27T11:50:06.358Z,31.65
2018-09-27T11:51:06.270Z,31.65
2018-09-27T11:52:06.259Z,31.94
2018-09-27T11:53:06.340Z,32.04
2018-09-27T11:54:06.240Z,31.73
2018-09-27T11:55:06.258Z,31.74
2018-09-27T11:56:39.433Z,31.55
2018-09-27T11:57:06.215Z,31.16
2018-09-27T11:58:06.384Z,28.54
2018-09-27T11:59:06.268Z,28.53
2018-09-27T12:00:06.204Z,28.34
2018-09-27T12:01:06.193Z,28.25
2018-09-27T12:02:06.177Z,29.11
2018-09-27T12:03:06.159Z,29.21
2018-09-27T12:04:06.157Z,29.69
2018-09-27T12:05:06.147Z,29.79
2018-09-27T12:06:06.134Z,29.69
2018-09-27T12:07:06.120Z,29.50
2018-09-27T12:08:06.111Z,28.53
2018-09-27T12:09:06.115Z,28.34
2018-09-27T12:10:06.098Z,26.89
2018-09-27T12:11:06.082Z,27.08
2018-09-27T12:12:06.171Z,27.25
2018-09-27T12:13:06.061Z,28.20
2018-09-27T12:14:06.061Z,28.76
2018-09-27T12:15:06.044Z,29.33
2018-09-27T12:16:06.031Z,30.58
2018-09-27T12:17:06.065Z,31.93
2018-09-27T12:18:06.009Z,32.21
2018-09-27T12:19:05.999Z,32.51
2018-09-27T12:20:06.065Z,33.28
2018-09-27T12:21:05.977Z,33.45
2018-09-27T12:22:05.972Z,33.45
2018-09-27T12:23:06.055Z,33.45
2018-09-27T12:24:05.947Z,33.65
2018-09-27T12:25:05.939Z,33.65
2018-09-27T12:26:05.934Z,33.45
2018-09-27T12:27:05.911Z,33.65
2018-09-27T12:28:05.905Z,33.94
2018-09-27T12:29:05.888Z,33.45
2018-09-27T12:30:05.891Z,33.44
2018-09-27T12:31:05.968Z,33.15
2018-09-27T12:32:05.860Z,33.54
2018-09-27T12:33:05.849Z,33.25
2018-09-27T12:34:05.869Z,32.96
2018-09-27T12:35:05.819Z,32.57
2018-09-27T12:36:05.817Z,32.47
2018-09-27T12:37:05.797Z,33.07
2018-09-27T12:38:05.784Z,32.68
2018-09-27T12:39:05.775Z,32.68
2018-09-27T12:40:05.759Z,32.78
2018-09-27T12:41:05.756Z,32.96
2018-09-27T12:42:05.990Z,32.39
2018-09-27T12:43:05.728Z,31.91
2018-09-27T12:44:05.717Z,31.43
2018-09-27T12:45:05.790Z,31.22
2018-09-27T12:46:05.767Z,30.17
2018-09-27T12:47:05.678Z,30.63
2018-09-27T12:48:05.742Z,30.93
2018-09-27T12:49:05.658Z,31.31
2018-09-27T12:50:05.645Z,31.51
2018-09-27T12:51:05.659Z,31.40
2018-09-27T12:52:05.873Z,31.30
2018-09-27T12:53:05.770Z,31.31
2018-09-27T12:54:05.679Z,30.93
2018-09-27T12:55:05.583Z,31.41
2018-09-27T12:56:05.637Z,30.93
2018-09-27T12:57:05.717Z,30.63
2018-09-27T12:58:05.546Z,30.54
2018-09-27T12:59:05.534Z,30.54
2018-09-27T13:00:05.530Z,30.85
2018-09-27T13:01:05.628Z,31.04
2018-09-27T13:02:05.755Z,31.12
2018-09-27T13:03:05.487Z,30.44
2018-09-27T13:04:05.515Z,30.73
2018-09-27T13:05:05.461Z,30.83